Terminal Aerodrome Forecast
Issued by NWS Cheyenne, WY

Home | Current Version | Previous Version | Text Only | Print | Product List | Glossary On
Versions: 1 2 3 4 5 6 7 8 9 10 11 12 13 14 15 16 17 18 19 20 21 22 23 24 25 26 27 28 29 30 31 32 33 34 35 36 37 38
000
FTUS45 KCYS 012320
TAFCYS
TAF
KCYS 012320Z 0200/0224 31012G20KT P6SM SCT100
     FM020100 27010KT P6SM VCTS SCT080CB BKN100
     FM020400 27008KT P6SM SCT120
     FM021600 27012G20KT P6SM SCT120=

USA.gov is the U.S. government's official web portal to all federal, state and local government web resources and services.